createdAt,value
2022-11-22T00:01:39.151Z,624.01
2022-11-22T00:07:10.872Z,623.84
2022-11-22T00:12:42.585Z,623.84
2022-11-22T00:18:14.271Z,624.37
2022-11-22T00:23:46.057Z,624.72
2022-11-22T00:29:18.018Z,624.37
2022-11-22T00:34:49.684Z,624.37
2022-11-22T00:40:21.423Z,624.01
2022-11-22T00:45:52.868Z,623.84
2022-11-22T00:51:24.617Z,623.31
2022-11-22T00:56:56.386Z,622.78
2022-11-22T01:02:28.115Z,622.51
2022-11-22T01:07:59.954Z,622.33
2022-11-22T01:13:31.710Z,622.16
2022-11-22T01:19:03.444Z,621.45
2022-11-22T01:24:35.353Z,622.16
2022-11-22T01:30:07.433Z,622.33
2022-11-22T01:35:38.941Z,622.95
2022-11-22T01:41:10.716Z,623.48
2022-11-22T01:46:42.556Z,624.37
2022-11-22T01:52:14.290Z,624.54
2022-11-22T01:57:46.134Z,624.54
2022-11-22T02:03:17.919Z,624.72
2022-11-22T02:08:49.758Z,624.90
2022-11-22T02:14:21.507Z,624.72
2022-11-22T02:19:53.169Z,624.90
2022-11-22T02:25:24.924Z,625.08
2022-11-22T02:30:57.051Z,625.43
2022-11-22T02:36:28.713Z,625.08
2022-11-22T02:42:00.483Z,625.08
2022-11-22T02:47:32.253Z,624.90
2022-11-22T02:53:04.043Z,624.37
2022-11-22T02:58:35.792Z,623.84
2022-11-22T03:04:07.579Z,624.01
2022-11-22T03:09:39.546Z,624.01
2022-11-22T03:15:11.173Z,623.48
2022-11-22T03:20:43.010Z,623.66
2022-11-22T03:26:14.995Z,623.66
2022-11-22T03:31:46.566Z,623.48
2022-11-22T03:37:18.729Z,622.95
2022-11-22T03:42:51.101Z,622.33
2022-11-22T03:48:22.922Z,622.16
2022-11-22T03:53:54.933Z,621.98
2022-11-22T03:59:26.899Z,621.63
2022-11-22T04:04:59.131Z,621.63
2022-11-22T04:10:31.086Z,621.63
2022-11-22T04:16:03.021Z,621.63
2022-11-22T04:21:34.890Z,621.10
2022-11-22T04:27:07.004Z,621.10
2022-11-22T04:32:38.808Z,620.92
2022-11-22T04:38:10.616Z,620.74
2022-11-22T04:43:42.445Z,620.04
2022-11-22T04:49:14.112Z,619.86
2022-11-22T04:54:46.024Z,619.86
2022-11-22T05:00:18.199Z,619.86
2022-11-22T05:05:49.885Z,619.50
2022-11-22T05:11:21.525Z,619.50
2022-11-22T05:13:33.427Z,619.15
2022-11-22T05:19:05.306Z,618.18
2022-11-22T05:24:36.955Z,617.83
2022-11-22T05:30:08.813Z,617.83
2022-11-22T05:35:40.563Z,617.30
2022-11-22T05:41:12.333Z,616.94
2022-11-22T05:46:44.072Z,616.41
2022-11-22T05:52:15.914Z,616.41
2022-11-22T05:57:48.166Z,616.59
2022-11-22T06:03:19.685Z,616.41
2022-11-22T06:08:51.513Z,616.41
2022-11-22T06:14:23.579Z,616.24
2022-11-22T06:19:55.186Z,616.24
2022-11-22T06:25:26.908Z,616.06
2022-11-22T06:30:58.291Z,615.88
2022-11-22T06:36:30.284Z,615.35
2022-11-22T06:42:01.958Z,615.35
2022-11-22T06:47:33.695Z,614.82
2022-11-22T06:53:05.277Z,613.76
2022-11-22T06:58:37.064Z,613.14
2022-11-22T07:04:08.892Z,612.61
2022-11-22T07:09:40.631Z,611.55
2022-11-22T07:15:12.613Z,610.85
2022-11-22T07:20:50.411Z,609.79
2022-11-22T07:26:22.267Z,609.17
2022-11-22T07:31:53.926Z,608.64
2022-11-22T07:37:25.810Z,608.11
2022-11-22T07:42:58.769Z,607.76
2022-11-22T07:48:29.297Z,607.40
2022-11-22T07:54:01.841Z,607.05
2022-11-22T07:59:33.553Z,606.52
2022-11-22T08:05:05.425Z,605.64
2022-11-22T08:10:37.712Z,605.11
2022-11-22T08:16:09.356Z,604.75
2022-11-22T08:21:41.107Z,604.31
2022-11-22T08:27:13.003Z,603.25
2022-11-22T08:32:44.918Z,602.19
2022-11-22T08:38:16.809Z,601.49
2022-11-22T08:43:48.819Z,600.78
2022-11-22T08:49:21.125Z,599.99
2022-11-22T08:54:53.122Z,599.46
2022-11-22T09:00:30.127Z,599.11
2022-11-22T09:11:28.700Z,598.22
2022-11-22T09:17:00.676Z,597.87
2022-11-22T09:24:45.206Z,596.81
2022-11-22T09:30:17.055Z,596.46
2022-11-22T09:35:48.942Z,595.67
2022-11-22T09:43:41.932Z,594.08
2022-11-22T09:49:14.065Z,594.08
2022-11-22T09:54:46.420Z,593.73
2022-11-22T10:02:58.817Z,593.37
2022-11-22T10:08:10.858Z,593.90
2022-11-22T10:13:42.128Z,593.73
2022-11-22T10:19:13.844Z,593.73
2022-11-22T10:24:45.812Z,593.73
2022-11-22T10:30:17.790Z,593.90
2022-11-22T10:35:49.547Z,594.08
2022-11-22T10:41:21.253Z,594.08
2022-11-22T10:46:56.694Z,593.90
2022-11-22T10:52:25.568Z,594.61
2022-11-22T10:57:57.196Z,594.96
2022-11-22T11:03:29.255Z,595.49
2022-11-22T11:14:33.216Z,595.14
2022-11-22T11:20:05.095Z,595.14
2022-11-22T11:25:37.366Z,594.61
2022-11-22T11:31:09.619Z,594.61
2022-11-22T11:36:41.917Z,595.14
2022-11-22T11:42:13.795Z,595.67
2022-11-22T11:47:45.799Z,596.64
2022-11-22T11:53:17.701Z,596.64
2022-11-22T11:58:49.357Z,596.64
2022-11-22T12:04:21.081Z,596.64
2022-11-22T12:09:53.168Z,596.64
2022-11-22T12:15:24.830Z,596.81
2022-11-22T12:20:56.502Z,596.81
2022-11-22T12:26:28.477Z,596.99
2022-11-22T12:32:00.330Z,597.34
2022-11-22T12:37:32.159Z,597.34
2022-11-22T12:43:04.075Z,597.52
2022-11-22T12:48:35.734Z,597.34
2022-11-22T12:54:07.442Z,597.87
2022-11-22T12:59:39.339Z,598.22
2022-11-22T13:05:11.084Z,598.40
2022-11-22T13:10:42.405Z,598.93
2022-11-22T13:16:14.219Z,598.93
2022-11-22T13:21:46.097Z,598.93
2022-11-22T13:27:18.220Z,598.93
2022-11-22T13:32:49.988Z,598.75
2022-11-22T13:38:21.486Z,599.11
2022-11-22T13:43:53.297Z,598.93
2022-11-22T13:49:25.130Z,598.93
2022-11-22T13:55:03.184Z,598.40
2022-11-22T14:00:34.990Z,598.05
2022-11-22T14:06:06.891Z,597.52
2022-11-22T14:11:40.699Z,597.17
2022-11-22T14:17:10.409Z,596.99
2022-11-22T14:22:42.512Z,596.99
2022-11-22T14:28:14.541Z,595.84
2022-11-22T14:33:46.385Z,595.67
2022-11-22T14:39:18.148Z,595.14
2022-11-22T14:44:49.824Z,594.78
2022-11-22T14:50:21.662Z,594.43
2022-11-22T14:55:53.293Z,593.90
2022-11-22T15:01:25.673Z,593.37
2022-11-22T15:09:16.478Z,593.37
2022-11-22T15:12:29.988Z,593.20
2022-11-22T16:02:17.766Z,590.46
2022-11-22T16:07:49.599Z,590.64
2022-11-22T16:13:21.270Z,590.29
2022-11-22T16:18:53.045Z,589.94
2022-11-22T16:24:24.737Z,589.23
2022-11-22T16:29:56.623Z,589.05
2022-11-22T16:35:29.762Z,588.88
2022-11-22T16:41:00.229Z,588.70
2022-11-22T16:46:32.062Z,588.35
2022-11-22T16:52:04.187Z,588.70
2022-11-22T16:57:36.562Z,588.35
2022-11-22T17:03:08.409Z,588.00
2022-11-22T17:10:52.494Z,587.03
2022-11-22T17:16:24.600Z,587.03
2022-11-22T17:21:56.350Z,586.50
2022-11-22T17:27:28.400Z,586.50
2022-11-22T17:33:00.146Z,586.50
2022-11-22T17:38:31.836Z,586.50
2022-11-22T17:44:03.859Z,586.50
2022-11-22T17:49:35.785Z,586.50
2022-11-22T17:55:13.061Z,586.32
2022-11-22T18:00:39.591Z,586.32
2022-11-22T18:06:11.406Z,586.32
2022-11-22T18:11:43.374Z,585.97
2022-11-22T18:17:15.860Z,585.79
2022-11-22T18:22:47.863Z,585.62
2022-11-22T18:28:19.914Z,585.44
2022-11-22T18:33:51.767Z,585.27
2022-11-22T18:39:23.667Z,585.27
2022-11-22T18:44:55.659Z,585.27
2022-11-22T18:50:27.450Z,584.74
2022-11-22T18:55:59.155Z,584.21
2022-11-22T19:01:31.294Z,583.68
2022-11-22T19:07:02.954Z,583.33
2022-11-22T19:12:35.109Z,582.98
2022-11-22T19:18:07.068Z,582.53
2022-11-22T19:23:39.205Z,582.18
2022-11-22T19:29:10.721Z,582.36
2022-11-22T19:34:42.530Z,582.36
2022-11-22T19:40:14.290Z,582.01
2022-11-22T19:45:46.205Z,581.83
2022-11-22T19:51:18.048Z,581.48
2022-11-22T19:56:50.317Z,580.77
2022-11-22T20:02:21.987Z,580.77
2022-11-22T20:07:53.923Z,580.60
2022-11-22T20:13:26.066Z,580.42
2022-11-22T20:18:57.528Z,579.89
2022-11-22T20:24:29.742Z,580.07
2022-11-22T20:30:01.571Z,580.07
2022-11-22T20:35:33.637Z,580.07
2022-11-22T20:41:05.562Z,580.07
2022-11-22T20:46:37.644Z,579.72
2022-11-22T20:52:09.613Z,579.54
2022-11-22T20:57:41.790Z,579.54
2022-11-22T21:03:13.689Z,579.19
2022-11-22T21:08:45.412Z,578.66
2022-11-22T21:14:17.690Z,578.40
2022-11-22T21:19:49.683Z,577.87
2022-11-22T21:25:21.676Z,577.34
2022-11-22T21:30:53.955Z,577.16
2022-11-22T21:36:25.981Z,576.99
2022-11-22T21:41:57.970Z,576.64
2022-11-22T21:47:30.145Z,576.64
2022-11-22T21:53:02.214Z,576.81
2022-11-22T21:58:34.515Z,576.28
2022-11-22T22:04:06.639Z,576.11
2022-11-22T22:09:39.148Z,575.75
2022-11-22T22:15:11.032Z,575.93
2022-11-22T22:20:43.253Z,575.93
2022-11-22T22:26:15.233Z,575.75
2022-11-22T22:31:47.244Z,575.40
2022-11-22T22:37:19.550Z,574.87
2022-11-22T22:42:51.613Z,574.87
2022-11-22T22:48:23.431Z,574.70
2022-11-22T22:53:55.365Z,574.26
2022-11-22T22:59:27.683Z,574.26
2022-11-22T23:04:59.957Z,572.67
2022-11-22T23:10:32.054Z,571.97
2022-11-22T23:16:04.111Z,571.62
2022-11-22T23:21:36.204Z,571.44
2022-11-22T23:27:08.490Z,571.27
2022-11-22T23:32:40.773Z,570.56
2022-11-22T23:38:13.127Z,570.39
2022-11-22T23:43:45.031Z,570.04
2022-11-22T23:49:16.966Z,569.77
2022-11-22T23:54:49.216Z,569.77
